Time;durP1;ratioP1;P1;durP2;ratioP2;P2;SDS_P1;SDS_P2;PMS_P1;PMS_P2;Temp;Humidity;BMP_temperature;BMP_pressure;BME280_temperature;BME280_humidity;BME280_pressure;Samples;Min_cycle;Max_cycle;Signal;HPM_P1;HPM_P2
2022/04/06 00:02:20;;;;;;;6.40;3.93;;;11.30;99.90;;;;;;5069498;28;20199;-77
2022/04/06 00:04:48;;;;;;;7.20;4.70;;;11.30;99.90;;;;;;5084118;28;20298;-75
2022/04/06 00:07:15;;;;;;;6.37;4.37;;;11.40;99.90;;;;;;5089097;28;20232;-75
2022/04/06 00:09:42;;;;;;;6.07;4.27;;;11.30;99.90;;;;;;5080490;28;20705;-75
2022/04/06 00:12:09;;;;;;;6.73;4.27;;;11.30;99.90;;;;;;5091022;28;20200;-76
2022/04/06 00:14:36;;;;;;;6.20;4.07;;;11.30;99.90;;;;;;5087682;28;20707;-76
2022/04/06 00:17:05;;;;;;;7.70;4.30;;;11.20;99.90;;;;;;5090024;28;20212;-77
2022/04/06 00:19:33;;;;;;;6.83;4.60;;;11.30;99.90;;;;;;5083150;28;20203;-75
2022/04/06 00:22:00;;;;;;;5.47;4.13;;;11.30;99.90;;;;;;5072100;28;20202;-75
2022/04/06 00:24:27;;;;;;;6.30;3.87;;;11.20;99.90;;;;;;5067560;28;20704;-76
2022/04/06 00:26:54;;;;;;;5.10;3.77;;;11.10;99.90;;;;;;5083192;28;20952;-75
2022/04/06 00:29:21;;;;;;;6.47;4.20;;;11.10;99.90;;;;;;5079492;28;20225;-75
2022/04/06 00:31:48;;;;;;;6.23;4.20;;;11.10;99.90;;;;;;5087627;28;20191;-75
2022/04/06 00:34:15;;;;;;;7.03;4.10;;;11.10;99.90;;;;;;5086753;28;20577;-75
2022/04/06 00:36:42;;;;;;;5.70;4.00;;;11.10;99.90;;;;;;5088252;28;20214;-75
2022/04/06 00:39:08;;;;;;;5.67;4.10;;;11.10;99.90;;;;;;5085115;28;20195;-76
2022/04/06 00:41:36;;;;;;;6.60;4.07;;;11.10;99.90;;;;;;5086507;28;20211;-75
2022/04/06 00:44:11;;;;;;;5.93;4.13;;;11.00;99.90;;;;;;5076164;28;20226;-76
2022/04/06 00:46:38;;;;;;;6.23;4.50;;;11.00;99.90;;;;;;5080981;28;20787;-75
2022/04/06 00:49:11;;;;;;;6.10;4.20;;;11.00;99.90;;;;;;5088406;28;20243;-75
2022/04/06 00:51:44;;;;;;;5.80;3.90;;;11.10;99.90;;;;;;5081282;28;20197;-75
2022/04/06 00:54:13;;;;;;;5.50;3.80;;;11.00;99.90;;;;;;5082913;28;20205;-76
2022/04/06 00:56:40;;;;;;;5.37;3.97;;;11.10;99.90;;;;;;5078826;28;20628;-76
2022/04/06 00:59:08;;;;;;;6.40;4.00;;;11.10;99.90;;;;;;5089189;28;20204;-75
2022/04/06 01:01:35;;;;;;;5.43;3.83;;;11.10;99.90;;;;;;5079918;28;20196;-78
2022/04/06 01:04:03;;;;;;;6.40;4.03;;;11.10;99.90;;;;;;5081560;28;20261;-75
2022/04/06 01:06:29;;;;;;;6.73;4.43;;;11.10;99.90;;;;;;5078789;28;20220;-75
2022/04/06 01:08:57;;;;;;;7.53;4.37;;;11.10;99.90;;;;;;5086046;28;20920;-76
2022/04/06 01:11:23;;;;;;;7.10;4.60;;;11.10;99.90;;;;;;5079090;28;20600;-75
2022/04/06 01:13:52;;;;;;;5.83;4.33;;;11.10;99.90;;;;;;5084036;28;20202;-78
2022/04/06 01:16:19;;;;;;;6.27;4.30;;;11.10;99.90;;;;;;5079244;28;20216;-76
2022/04/06 01:18:46;;;;;;;7.03;4.70;;;11.20;99.90;;;;;;5085800;28;20234;-75
2022/04/06 01:21:13;;;;;;;6.77;4.43;;;11.10;99.90;;;;;;5085292;28;20189;-75
2022/04/06 01:23:43;;;;;;;6.20;4.40;;;11.10;99.90;;;;;;5082423;28;20196;-77
2022/04/06 01:26:11;;;;;;;7.00;4.60;;;11.10;99.90;;;;;;5065951;28;20223;-78
2022/04/06 01:28:39;;;;;;;6.60;4.37;;;11.10;99.90;;;;;;5079186;28;20215;-75
2022/04/06 01:31:07;;;;;;;6.83;4.67;;;11.10;99.90;;;;;;5082698;28;20197;-79
2022/04/06 01:33:34;;;;;;;6.53;4.33;;;11.30;99.90;;;;;;5083191;28;20594;-76
2022/04/06 01:36:01;;;;;;;6.70;4.27;;;11.30;99.90;;;;;;5089734;28;20223;-77
2022/04/06 01:38:27;;;;;;;8.87;4.47;;;11.20;99.90;;;;;;5075887;28;20188;-77
2022/04/06 01:40:54;;;;;;;8.53;4.90;;;11.20;99.90;;;;;;5086036;28;20203;-76
2022/04/06 01:43:22;;;;;;;7.40;4.47;;;11.10;99.90;;;;;;5079606;28;20190;-80
2022/04/06 01:45:49;;;;;;;7.20;4.70;;;11.10;99.90;;;;;;5084655;28;20270;-77
2022/04/06 01:48:17;;;;;;;8.07;5.07;;;11.10;99.90;;;;;;5079449;28;20190;-77
2022/04/06 01:53:31;;;;;;;6.63;4.60;;;11.10;99.90;;;;;;5078584;28;20197;-77
2022/04/06 01:55:58;;;;;;;8.20;5.30;;;11.20;99.90;;;;;;5085276;28;20292;-77
2022/04/06 01:58:25;;;;;;;7.37;4.87;;;11.20;99.90;;;;;;5085962;28;20188;-77
2022/04/06 02:00:52;;;;;;;7.70;5.10;;;11.20;99.90;;;;;;5085225;28;20192;-75
2022/04/06 02:03:19;;;;;;;7.27;4.97;;;11.20;99.90;;;;;;5082431;28;20189;-76
2022/04/06 02:05:46;;;;;;;8.67;5.40;;;11.20;99.90;;;;;;5087827;28;20706;-75
2022/04/06 02:08:13;;;;;;;7.83;4.93;;;11.20;99.90;;;;;;5070435;28;20733;-75
2022/04/06 02:10:40;;;;;;;8.40;5.20;;;11.10;99.90;;;;;;5086008;28;20715;-76
2022/04/06 02:13:07;;;;;;;7.93;4.53;;;11.10;99.90;;;;;;5079190;28;20196;-75
2022/04/06 02:15:34;;;;;;;7.20;4.53;;;11.10;99.90;;;;;;5083214;28;20212;-77
2022/04/06 02:18:01;;;;;;;9.93;4.97;;;11.10;99.90;;;;;;5084146;28;20205;-76
2022/04/06 02:20:28;;;;;;;7.13;4.90;;;11.30;99.90;;;;;;5080119;28;20202;-77
2022/04/06 02:22:54;;;;;;;6.37;4.67;;;11.50;99.90;;;;;;5074479;28;20207;-77
2022/04/06 02:25:21;;;;;;;7.73;4.67;;;11.40;99.90;;;;;;5087714;28;20212;-76
2022/04/06 02:27:53;;;;;;;6.63;4.50;;;11.30;99.90;;;;;;5078502;28;20198;-76
2022/04/06 02:30:20;;;;;;;7.07;4.30;;;11.20;99.90;;;;;;5086388;28;20220;-74
2022/04/06 02:32:48;;;;;;;7.33;4.40;;;11.20;99.90;;;;;;5082688;28;20196;-74
2022/04/06 02:35:14;;;;;;;6.07;4.43;;;11.20;99.90;;;;;;5086829;28;20207;-74
2022/04/06 02:37:43;;;;;;;10.30;4.87;;;11.10;99.90;;;;;;5069352;28;20257;-74
2022/04/06 02:40:12;;;;;;;7.57;4.80;;;10.90;99.90;;;;;;5092978;28;20191;-72
2022/04/06 02:42:39;;;;;;;6.77;5.10;;;10.90;99.90;;;;;;5091291;28;20228;-74
2022/04/06 02:45:06;;;;;;;8.20;5.10;;;10.90;99.90;;;;;;5089979;28;20667;-72
2022/04/06 02:47:33;;;;;;;8.37;5.17;;;10.80;99.90;;;;;;5070442;28;20209;-74
2022/04/06 02:50:00;;;;;;;8.37;5.37;;;10.80;99.90;;;;;;5092463;28;20212;-74
2022/04/06 02:52:27;;;;;;;8.73;5.17;;;10.80;99.90;;;;;;5089119;28;20213;-75
2022/04/06 02:54:53;;;;;;;7.73;4.80;;;10.80;99.90;;;;;;5084765;28;20201;-75
2022/04/06 02:57:20;;;;;;;6.57;4.57;;;10.80;99.90;;;;;;5088487;28;20212;-74
2022/04/06 02:59:47;;;;;;;7.63;4.80;;;10.80;99.90;;;;;;5079370;28;20757;-74
2022/04/06 03:02:13;;;;;;;8.40;5.17;;;10.70;99.90;;;;;;5087098;28;20202;-74
2022/04/06 03:04:40;;;;;;;7.83;4.90;;;10.80;99.90;;;;;;5083778;28;20867;-74
2022/04/06 03:07:07;;;;;;;8.33;4.93;;;10.70;99.90;;;;;;5084504;28;20307;-72
2022/04/06 03:09:34;;;;;;;7.30;4.80;;;10.70;99.90;;;;;;5096703;28;20242;-74
2022/04/06 03:12:00;;;;;;;8.77;4.90;;;10.70;99.90;;;;;;5082607;28;20717;-75
2022/04/06 03:14:27;;;;;;;9.43;5.30;;;10.70;99.90;;;;;;5085671;28;20242;-75
2022/04/06 03:16:53;;;;;;;6.50;4.60;;;10.70;99.90;;;;;;5092271;28;20713;-74
2022/04/06 03:19:20;;;;;;;9.47;5.10;;;10.80;99.90;;;;;;5080745;28;20196;-74
2022/04/06 03:21:47;;;;;;;8.07;4.07;;;10.80;99.90;;;;;;5085086;28;20203;-74
2022/04/06 03:24:13;;;;;;;6.40;3.47;;;10.80;99.90;;;;;;5088231;28;20197;-74
2022/04/06 03:26:40;;;;;;;7.13;3.00;;;10.90;99.90;;;;;;5072464;28;20586;-75
2022/04/06 03:29:06;;;;;;;3.90;3.07;;;10.80;99.90;;;;;;5087905;28;20712;-74
2022/04/06 03:31:33;;;;;;;6.27;3.13;;;10.90;99.90;;;;;;5080360;28;20191;-74
2022/04/06 03:34:00;;;;;;;7.67;2.90;;;10.90;99.90;;;;;;5090699;28;20192;-74
2022/04/06 03:36:27;;;;;;;7.33;3.37;;;10.90;99.90;;;;;;5092382;28;20222;-74
2022/04/06 03:38:54;;;;;;;5.50;3.27;;;10.90;99.90;;;;;;5095778;28;20203;-74
2022/04/06 03:41:21;;;;;;;6.53;2.87;;;10.80;99.90;;;;;;5093270;28;20251;-74
2022/04/06 03:43:47;;;;;;;5.33;2.93;;;10.70;99.90;;;;;;5090049;28;20199;-74
2022/04/06 03:46:14;;;;;;;4.57;2.73;;;10.80;99.90;;;;;;5088839;28;20209;-74
2022/04/06 03:48:42;;;;;;;8.03;3.17;;;10.70;99.90;;;;;;5082074;28;20191;-74
2022/04/06 03:51:09;;;;;;;6.70;2.63;;;10.70;99.90;;;;;;5070925;28;20771;-74
2022/04/06 03:53:36;;;;;;;9.90;3.00;;;10.70;99.90;;;;;;5084168;28;20195;-74
2022/04/06 03:56:03;;;;;;;6.77;2.70;;;10.80;99.90;;;;;;5083802;28;20215;-76
2022/04/06 03:58:30;;;;;;;5.10;2.90;;;10.80;99.90;;;;;;5085635;28;20191;-75
2022/04/06 04:00:57;;;;;;;7.40;3.00;;;10.70;99.90;;;;;;5074607;28;20192;-74
2022/04/06 04:03:23;;;;;;;7.73;2.80;;;10.70;99.90;;;;;;5082717;28;20214;-75
2022/04/06 04:05:50;;;;;;;5.97;2.80;;;10.70;99.90;;;;;;5084134;28;20524;-75
2022/04/06 04:08:17;;;;;;;6.67;2.63;;;10.70;99.90;;;;;;5086692;28;20203;-74
2022/04/06 04:10:44;;;;;;;6.00;2.97;;;10.70;99.90;;;;;;5090490;28;20295;-74
2022/04/06 04:13:12;;;;;;;5.03;2.63;;;10.70;99.90;;;;;;5091601;28;20733;-76
2022/04/06 04:15:38;;;;;;;5.80;2.70;;;10.70;99.90;;;;;;5077976;28;20210;-73
2022/04/06 04:18:05;;;;;;;5.60;2.40;;;10.70;99.90;;;;;;5084609;28;20196;-76
2022/04/06 04:20:32;;;;;;;7.07;2.90;;;10.70;99.90;;;;;;5095934;28;20206;-75
2022/04/06 04:22:58;;;;;;;8.20;2.90;;;10.70;99.90;;;;;;5081350;28;20679;-74
2022/04/06 04:25:25;;;;;;;11.10;3.00;;;10.70;99.90;;;;;;5084238;28;20229;-74
2022/04/06 04:27:52;;;;;;;10.27;3.07;;;10.60;99.90;;;;;;5088137;28;20205;-72
2022/04/06 04:30:19;;;;;;;6.80;2.90;;;10.50;99.90;;;;;;5074876;28;20696;-73
2022/04/06 04:32:46;;;;;;;8.47;3.03;;;10.50;99.90;;;;;;5080672;28;20224;-75
2022/04/06 04:35:12;;;;;;;6.93;3.07;;;10.50;99.90;;;;;;5089754;28;20202;-74
2022/04/06 04:37:39;;;;;;;9.57;3.37;;;10.60;99.90;;;;;;5069676;28;20202;-73
2022/04/06 04:40:06;;;;;;;5.90;3.00;;;10.60;99.90;;;;;;5080018;28;20228;-71
2022/04/06 04:42:33;;;;;;;4.90;2.77;;;10.60;99.90;;;;;;5080128;28;20211;-75
2022/04/06 04:45:00;;;;;;;6.43;3.13;;;10.60;99.90;;;;;;5083006;28;20385;-72
2022/04/06 04:47:27;;;;;;;4.80;3.00;;;10.60;99.90;;;;;;5079235;28;20194;-75
2022/04/06 04:49:54;;;;;;;5.63;2.93;;;10.50;99.90;;;;;;5085063;28;20277;-74
2022/04/06 04:52:21;;;;;;;6.60;3.07;;;10.60;99.90;;;;;;5090300;28;20206;-76
2022/04/06 04:54:47;;;;;;;5.27;2.60;;;10.60;99.90;;;;;;5071830;28;20532;-74
2022/04/06 04:57:14;;;;;;;9.97;3.10;;;10.60;99.90;;;;;;5083412;28;20215;-74
2022/04/06 04:59:40;;;;;;;7.53;2.90;;;10.60;99.90;;;;;;5066609;28;20447;-76
2022/04/06 05:02:07;;;;;;;5.40;2.77;;;10.60;99.90;;;;;;5080805;28;20609;-74
2022/04/06 05:04:34;;;;;;;6.80;2.53;;;10.60;99.90;;;;;;5080043;28;20204;-74
2022/04/06 05:07:01;;;;;;;6.47;3.17;;;10.60;99.90;;;;;;5087772;28;20227;-76
2022/04/06 05:09:27;;;;;;;5.80;2.70;;;10.50;99.90;;;;;;5082254;28;20286;-75
2022/04/06 05:11:54;;;;;;;5.47;2.93;;;10.60;99.90;;;;;;5084035;28;20194;-72
2022/04/06 05:14:21;;;;;;;6.40;3.00;;;10.60;99.90;;;;;;5078973;28;20199;-74
2022/04/06 05:16:47;;;;;;;6.43;2.80;;;10.60;99.90;;;;;;5084437;28;20243;-78
2022/04/06 05:19:14;;;;;;;6.17;3.20;;;10.60;99.90;;;;;;5076533;28;20191;-76
2022/04/06 05:21:41;;;;;;;7.57;3.10;;;10.70;99.90;;;;;;5086316;28;20186;-77
2022/04/06 05:24:07;;;;;;;6.63;3.03;;;10.70;99.90;;;;;;5084901;28;20228;-71
2022/04/06 05:26:39;;;;;;;8.60;3.27;;;10.70;99.90;;;;;;5066939;28;20222;-68
2022/04/06 05:29:06;;;;;;;6.93;2.57;;;10.80;99.90;;;;;;5078456;28;20608;-71
2022/04/06 05:31:32;;;;;;;8.53;3.23;;;10.80;99.90;;;;;;5075760;28;20221;-70
2022/04/06 05:33:59;;;;;;;7.87;2.97;;;10.80;99.90;;;;;;5073840;28;20216;-71
2022/04/06 05:36:28;;;;;;;7.87;3.00;;;10.80;99.90;;;;;;5076365;28;20217;-73
2022/04/06 05:38:56;;;;;;;6.03;3.37;;;10.80;99.90;;;;;;5093789;28;20587;-73
2022/04/06 05:41:23;;;;;;;7.03;2.70;;;10.80;99.90;;;;;;5071535;28;20217;-73
2022/04/06 05:43:50;;;;;;;6.20;3.20;;;10.80;99.90;;;;;;5087455;28;20210;-75
2022/04/06 05:46:16;;;;;;;7.67;3.20;;;10.90;99.90;;;;;;5087597;28;20220;-73
2022/04/06 05:48:43;;;;;;;9.33;3.13;;;10.80;99.90;;;;;;5082423;28;20251;-74
2022/04/06 05:51:10;;;;;;;5.70;2.97;;;10.80;99.90;;;;;;5079471;28;20593;-72
2022/04/06 05:53:37;;;;;;;6.70;3.17;;;10.90;99.90;;;;;;5085525;28;20193;-74
2022/04/06 05:56:04;;;;;;;8.60;3.10;;;10.90;99.90;;;;;;5077937;28;22004;-73
2022/04/06 05:58:31;;;;;;;7.63;3.10;;;11.00;99.90;;;;;;5070073;28;20206;-73
2022/04/06 06:00:58;;;;;;;6.53;2.70;;;11.00;99.90;;;;;;5079880;28;20206;-73
2022/04/06 06:03:25;;;;;;;8.70;3.65;;;11.10;99.90;;;;;;5073392;28;20456;-73
2022/04/06 06:05:52;;;;;;;9.20;2.80;;;11.20;99.90;;;;;;5090660;28;20226;-87
2022/04/06 06:08:19;;;;;;;7.40;2.93;;;11.30;99.90;;;;;;5099409;28;20220;-75
2022/04/06 06:10:47;;;;;;;6.53;3.00;;;11.30;99.90;;;;;;5099252;28;20749;-75
2022/04/06 06:13:13;;;;;;;6.97;3.00;;;11.30;99.90;;;;;;5075189;28;20597;-75
2022/04/06 06:15:40;;;;;;;8.03;3.03;;;11.30;99.90;;;;;;5093119;28;20212;-74
2022/04/06 06:18:08;;;;;;;6.00;2.50;;;11.30;99.90;;;;;;5091855;28;20229;-78
2022/04/06 06:20:35;;;;;;;5.93;3.27;;;11.40;99.90;;;;;;5092752;28;20201;-79
2022/04/06 06:23:02;;;;;;;6.57;2.97;;;11.40;99.90;;;;;;5092118;28;20216;-74
2022/04/06 06:25:29;;;;;;;4.60;2.53;;;11.50;99.90;;;;;;5090958;28;20219;-75
2022/04/06 06:27:55;;;;;;;9.03;3.10;;;11.60;99.90;;;;;;5094281;28;20887;-74
2022/04/06 06:30:24;;;;;;;8.70;2.60;;;11.60;99.90;;;;;;5084105;28;20227;-77
2022/04/06 06:32:51;;;;;;;5.23;2.57;;;11.70;99.90;;;;;;5089040;28;20188;-76
2022/04/06 06:35:19;;;;;;;7.03;2.50;;;11.80;99.90;;;;;;5090509;28;20219;-76
2022/04/06 06:37:51;;;;;;;7.63;2.70;;;11.90;99.90;;;;;;5073047;28;20200;-76
2022/04/06 06:40:20;;;;;;;7.83;2.70;;;11.80;99.90;;;;;;5087461;28;20284;-74
2022/04/06 06:42:46;;;;;;;3.30;2.10;;;11.70;99.90;;;;;;5089505;28;20204;-76
2022/04/06 06:45:14;;;;;;;7.63;2.70;;;11.80;99.90;;;;;;5088220;28;20207;-76
2022/04/06 06:47:40;;;;;;;4.10;2.20;;;12.00;99.90;;;;;;5088573;28;20202;-76
2022/04/06 06:50:12;;;;;;;6.57;2.90;;;12.00;99.90;;;;;;5087162;28;21294;-75
2022/04/06 06:52:39;;;;;;;5.80;2.60;;;11.90;99.90;;;;;;5089014;28;20335;-76
2022/04/06 06:55:12;;;;;;;6.40;2.53;;;11.80;99.90;;;;;;5090534;28;20636;-75
2022/04/06 06:57:39;;;;;;;5.97;2.57;;;11.80;99.90;;;;;;5091186;28;20925;-76
2022/04/06 07:00:09;;;;;;;7.60;2.70;;;12.00;99.90;;;;;;5087275;28;20662;-76
2022/04/06 07:02:36;;;;;;;7.70;2.40;;;12.10;99.90;;;;;;5087627;28;20194;-77
2022/04/06 07:05:03;;;;;;;9.13;3.23;;;12.30;99.90;;;;;;5076438;28;20200;-80
2022/04/06 07:07:30;;;;;;;5.20;2.80;;;12.30;99.90;;;;;;5091672;28;20222;-81
2022/04/06 07:09:57;;;;;;;5.20;2.70;;;12.30;99.90;;;;;;5096165;28;20190;-80
2022/04/06 07:12:24;;;;;;;3.77;2.17;;;12.20;99.90;;;;;;5093356;28;20198;-81
2022/04/06 07:14:54;;;;;;;6.63;2.90;;;12.30;99.90;;;;;;5091218;28;20202;-79
2022/04/06 07:17:23;;;;;;;5.47;2.57;;;12.20;99.90;;;;;;5091167;28;20609;-87
2022/04/06 07:19:50;;;;;;;8.37;2.63;;;12.40;99.90;;;;;;5090743;28;20201;-82
2022/04/06 07:22:17;;;;;;;3.50;2.37;;;12.30;99.90;;;;;;5088934;28;20643;-84
2022/04/06 07:24:43;;;;;;;6.20;2.60;;;12.40;99.90;;;;;;5094742;28;20203;-86
2022/04/06 07:27:16;;;;;;;4.90;2.20;;;12.60;99.90;;;;;;5095674;28;20220;-84
2022/04/06 07:29:43;;;;;;;3.50;2.53;;;12.70;99.90;;;;;;5093885;28;20197;-86
2022/04/06 07:32:10;;;;;;;7.43;2.63;;;12.80;99.90;;;;;;5098471;28;20234;-85
2022/04/06 07:34:37;;;;;;;5.87;2.47;;;13.00;99.90;;;;;;5097125;28;20194;-83
2022/04/06 07:37:03;;;;;;;5.30;2.23;;;13.20;99.90;;;;;;5099987;28;20215;-83
2022/04/06 07:39:30;;;;;;;6.73;2.50;;;13.20;99.90;;;;;;5093657;28;20221;-84
2022/04/06 07:41:57;;;;;;;4.43;2.30;;;13.10;99.90;;;;;;5094465;28;20209;-83
2022/04/06 07:44:24;;;;;;;5.67;2.30;;;12.80;99.90;;;;;;5096180;28;20616;-83
2022/04/06 07:46:51;;;;;;;6.90;2.43;;;12.90;99.90;;;;;;5091126;28;20278;-81
2022/04/06 07:49:18;;;;;;;3.40;2.10;;;13.00;99.90;;;;;;5098218;28;20196;-82
2022/04/06 07:51:46;;;;;;;6.90;2.30;;;13.00;99.90;;;;;;5074319;28;20215;-81
2022/04/06 07:54:13;;;;;;;6.00;2.30;;;13.00;99.90;;;;;;5093181;28;20211;-83
2022/04/06 07:56:42;;;;;;;5.23;2.03;;;13.00;99.90;;;;;;5096783;28;20215;-80
2022/04/06 07:59:08;;;;;;;6.20;2.30;;;12.90;99.90;;;;;;5093774;28;20540;-79
2022/04/06 08:01:35;;;;;;;4.30;2.00;;;12.90;99.90;;;;;;5093184;28;20199;-79
2022/04/06 08:04:02;;;;;;;4.97;2.20;;;12.80;99.90;;;;;;5093258;28;20684;-80
2022/04/06 08:06:29;;;;;;;4.40;2.20;;;12.80;99.90;;;;;;5094913;28;20221;-75
2022/04/06 08:08:56;;;;;;;5.13;2.43;;;12.80;99.90;;;;;;5093657;28;20773;-74
2022/04/06 08:11:22;;;;;;;6.47;2.23;;;12.60;99.90;;;;;;5096186;28;20221;-75
2022/04/06 08:13:49;;;;;;;3.97;2.27;;;12.60;99.90;;;;;;5097277;28;20209;-75
2022/04/06 08:16:16;;;;;;;5.97;3.00;;;12.90;99.90;;;;;;5088163;28;20214;-81
2022/04/06 08:18:43;;;;;;;5.80;2.40;;;13.00;99.90;;;;;;5068836;28;20243;-81
2022/04/06 08:21:10;;;;;;;5.93;2.40;;;13.20;99.90;;;;;;5083388;28;20587;-83
2022/04/06 08:23:36;;;;;;;6.00;2.17;;;13.40;99.90;;;;;;5090041;28;20683;-83
2022/04/06 08:26:03;;;;;;;5.87;2.40;;;13.40;99.90;;;;;;5090327;28;20708;-78
2022/04/06 08:28:30;;;;;;;5.00;2.47;;;13.50;99.90;;;;;;5090120;28;20203;-81
2022/04/06 08:30:57;;;;;;;5.07;2.60;;;13.50;99.90;;;;;;5081600;28;20224;-79
2022/04/06 08:33:24;;;;;;;4.83;2.80;;;13.70;99.90;;;;;;5097152;28;20351;-78
2022/04/06 08:35:53;;;;;;;8.17;2.70;;;13.50;99.90;;;;;;5085399;28;20231;-77
2022/04/06 08:38:20;;;;;;;5.43;2.60;;;13.60;99.90;;;;;;5093882;28;20205;-77
2022/04/06 08:40:48;;;;;;;6.03;2.60;;;13.70;99.90;;;;;;5093941;28;20274;-77
2022/04/06 08:43:16;;;;;;;7.57;3.10;;;13.60;99.90;;;;;;5091288;28;20769;-80
2022/04/06 08:45:43;;;;;;;8.93;2.63;;;13.50;99.90;;;;;;5086959;28;20656;-77
2022/04/06 08:48:10;;;;;;;4.67;2.37;;;13.40;99.90;;;;;;5094773;28;20202;-80
2022/04/06 08:50:38;;;;;;;3.50;2.40;;;13.30;99.90;;;;;;5093171;28;20213;-77
2022/04/06 08:53:06;;;;;;;6.33;2.97;;;13.20;99.90;;;;;;5089882;28;20611;-80
2022/04/06 08:55:34;;;;;;;3.60;2.20;;;13.30;99.90;;;;;;5073361;28;20224;-78
2022/04/06 08:58:02;;;;;;;7.63;2.00;;;13.60;99.90;;;;;;5092342;28;20208;-74
2022/04/06 09:00:29;;;;;;;4.43;2.43;;;14.00;99.90;;;;;;5092565;28;20189;-76
2022/04/06 09:02:56;;;;;;;4.83;2.33;;;14.40;99.90;;;;;;5092293;28;20211;-77
2022/04/06 09:05:26;;;;;;;2.23;1.83;;;14.50;99.90;;;;;;5094606;28;20248;-71
2022/04/06 09:07:53;;;;;;;4.73;1.90;;;14.50;99.90;;;;;;5091281;28;20201;-74
2022/04/06 09:10:33;;;;;;;1.97;1.77;;;14.20;99.90;;;;;;5087515;28;20185;-73
2022/04/06 09:13:20;;;;;;;4.27;1.90;;;14.30;99.90;;;;;;5083158;28;20196;-74
2022/04/06 09:15:51;;;;;;;3.73;2.10;;;14.50;99.90;;;;;;5091782;28;20798;-76
2022/04/06 09:18:19;;;;;;;4.20;2.10;;;14.70;99.90;;;;;;5094563;28;20247;-73
2022/04/06 09:20:46;;;;;;;4.20;2.27;;;14.60;99.90;;;;;;5093564;28;20262;-68
2022/04/06 09:23:14;;;;;;;6.50;2.40;;;15.00;99.90;;;;;;5093776;28;20205;-74
2022/04/06 09:25:42;;;;;;;4.30;2.17;;;14.80;99.90;;;;;;5091309;28;20217;-77
2022/04/06 09:28:14;;;;;;;3.80;1.83;;;14.80;99.90;;;;;;5091671;28;20224;-72
2022/04/06 09:30:44;;;;;;;4.63;2.23;;;14.80;99.90;;;;;;5089368;28;20689;-71
2022/04/06 09:33:19;;;;;;;5.47;2.60;;;14.90;99.90;;;;;;5092015;28;20198;-72
2022/04/06 09:35:47;;;;;;;5.83;2.63;;;14.40;99.90;;;;;;5086220;28;20252;-71
2022/04/06 09:38:15;;;;;;;6.47;2.80;;;14.20;99.90;;;;;;5083178;28;20206;-74
2022/04/06 09:40:43;;;;;;;6.70;2.60;;;14.10;99.90;;;;;;5068631;28;20189;-73
2022/04/06 09:43:23;;;;;;;6.43;2.70;;;14.00;99.90;;;;;;5091502;28;20196;-72
2022/04/06 09:48:56;;;;;;;7.30;3.33;;;14.00;99.90;;;;;;5088552;28;20199;-74
2022/04/06 09:51:23;;;;;;;6.93;2.67;;;14.00;99.90;;;;;;5085106;28;20206;-72
2022/04/06 09:53:52;;;;;;;5.10;2.57;;;14.20;99.90;;;;;;5073409;28;20223;-74
2022/04/06 09:56:22;;;;;;;5.03;2.73;;;14.50;99.90;;;;;;5088216;28;20217;-74
2022/04/06 09:58:50;;;;;;;8.13;2.90;;;14.40;99.90;;;;;;5069363;28;20625;-73
2022/04/06 10:01:17;;;;;;;3.57;2.60;;;14.20;99.90;;;;;;5089347;28;20205;-74
2022/04/06 10:03:49;;;;;;;5.67;2.60;;;14.20;99.90;;;;;;5080062;28;20576;-77
2022/04/06 10:06:16;;;;;;;8.17;2.90;;;14.20;99.90;;;;;;5091143;28;20212;-74
2022/04/06 10:08:43;;;;;;;5.27;2.70;;;14.20;99.90;;;;;;5087814;28;20207;-74
2022/04/06 10:11:11;;;;;;;4.93;2.60;;;14.40;99.90;;;;;;5093094;28;20709;-74
2022/04/06 10:13:39;;;;;;;5.40;2.73;;;14.70;99.90;;;;;;5093580;28;20189;-75
2022/04/06 10:16:20;;;;;;;8.53;3.00;;;14.70;99.90;;;;;;5089020;28;20266;-74
2022/04/06 10:18:48;;;;;;;5.00;2.80;;;14.60;99.90;;;;;;5073107;28;20578;-72
2022/04/06 10:21:22;;;;;;;5.00;2.90;;;14.20;99.90;;;;;;5088544;28;20208;-72
2022/04/06 10:24:11;;;;;;;4.87;2.90;;;14.20;99.90;;;;;;5093461;28;20575;-74
2022/04/06 10:26:44;;;;;;;7.63;3.33;;;14.20;99.90;;;;;;5089692;28;20217;-73
2022/04/06 10:29:11;;;;;;;7.27;3.30;;;14.40;99.90;;;;;;5090609;28;20681;-73
2022/04/06 10:31:37;;;;;;;8.03;3.20;;;14.50;99.90;;;;;;5087391;28;20453;-71
2022/04/06 10:34:22;;;;;;;6.03;2.80;;;14.50;99.90;;;;;;5091562;28;20295;-75
2022/04/06 10:37:07;;;;;;;7.70;3.17;;;14.40;99.90;;;;;;5095323;28;20581;-71
2022/04/06 10:39:54;;;;;;;5.83;2.93;;;14.20;99.90;;;;;;5094823;28;20201;-74
2022/04/06 10:42:34;;;;;;;5.33;2.77;;;14.40;99.90;;;;;;5090700;28;20189;-72
2022/04/06 10:45:03;;;;;;;4.83;2.57;;;14.60;99.90;;;;;;5091085;28;20200;-72
2022/04/06 10:47:31;;;;;;;5.33;2.70;;;14.70;99.90;;;;;;5091745;28;20284;-72
2022/04/06 10:50:13;;;;;;;5.00;2.73;;;15.00;99.90;;;;;;5090790;28;20201;-72
2022/04/06 10:52:42;;;;;;;7.27;3.17;;;15.40;99.90;;;;;;5093621;28;20311;-73
2022/04/06 10:55:11;;;;;;;8.67;3.00;;;15.00;99.90;;;;;;5087724;28;20193;-75
2022/04/06 10:58:01;;;;;;;7.03;2.73;;;14.80;99.90;;;;;;5092062;28;20193;-73
2022/04/06 11:00:30;;;;;;;6.50;2.77;;;14.70;99.90;;;;;;5095844;28;20842;-71
2022/04/06 11:03:19;;;;;;;9.57;2.90;;;14.70;99.90;;;;;;5091548;28;20198;-76
2022/04/06 11:05:52;;;;;;;4.63;2.40;;;14.60;99.90;;;;;;5076135;28;20227;-73
2022/04/06 11:11:45;;;;;;;9.50;3.03;;;14.60;99.90;;;;;;5096855;28;20235;-73
2022/04/06 11:14:30;;;;;;;5.00;2.60;;;14.70;99.90;;;;;;5093113;28;20193;-70
2022/04/06 11:16:57;;;;;;;4.37;2.70;;;15.10;99.90;;;;;;5093606;28;20218;-72
2022/04/06 11:19:25;;;;;;;6.80;3.00;;;15.60;99.90;;;;;;5094966;28;20200;-71
2022/04/06 11:21:56;;;;;;;7.43;3.70;;;15.60;99.90;;;;;;5091631;28;20202;-74
2022/04/06 11:24:27;;;;;;;6.20;3.40;;;15.30;99.90;;;;;;5094690;28;20666;-71
2022/04/06 11:26:54;;;;;;;5.83;3.27;;;15.40;99.90;;;;;;5094942;28;20221;-74
2022/04/06 11:29:27;;;;;;;5.40;2.80;;;15.60;99.90;;;;;;5094914;28;20200;-71
2022/04/06 11:32:00;;;;;;;6.03;2.93;;;15.70;99.90;;;;;;5092100;28;20227;-70
2022/04/06 11:34:38;;;;;;;4.13;2.70;;;15.80;99.90;;;;;;5092562;28;20190;-72
2022/04/06 11:37:07;;;;;;;5.67;2.60;;;15.90;99.90;;;;;;5093112;28;20213;-71
2022/04/06 11:39:35;;;;;;;4.47;2.60;;;15.70;99.90;;;;;;5079697;28;20188;-72
2022/04/06 11:42:04;;;;;;;6.80;2.37;;;15.70;99.90;;;;;;5094357;28;20201;-73
2022/04/06 11:44:31;;;;;;;6.53;2.50;;;15.70;99.90;;;;;;5093528;28;20202;-70
2022/04/06 11:46:58;;;;;;;4.97;2.27;;;15.70;99.90;;;;;;5087447;28;20248;-72
2022/04/06 11:49:29;;;;;;;4.97;2.27;;;15.50;99.90;;;;;;5090027;28;20726;-72
2022/04/06 11:51:57;;;;;;;6.40;2.63;;;15.40;99.90;;;;;;5094737;28;20228;-72
2022/04/06 11:54:25;;;;;;;4.60;2.27;;;15.50;99.90;;;;;;5092996;28;20197;-73
2022/04/06 11:56:53;;;;;;;4.43;2.10;;;16.00;99.90;;;;;;5094325;28;20212;-72
2022/04/06 11:59:22;;;;;;;6.47;2.00;;;16.20;99.90;;;;;;5093124;28;20224;-71
2022/04/06 12:01:52;;;;;;;3.40;1.70;;;16.40;99.90;;;;;;5091737;28;20205;-67
2022/04/06 12:04:23;;;;;;;4.20;1.53;;;16.20;99.90;;;;;;5088506;28;20209;-71
2022/04/06 12:06:52;;;;;;;3.73;1.80;;;16.20;99.90;;;;;;5089892;28;20278;-72
2022/04/06 12:09:20;;;;;;;4.80;1.77;;;16.20;99.90;;;;;;5093293;28;20205;-69
2022/04/06 12:11:51;;;;;;;2.97;1.67;;;16.10;99.90;;;;;;5091177;28;20217;-69
2022/04/06 12:14:19;;;;;;;2.97;1.43;;;16.10;99.90;;;;;;5087118;28;20226;-72
2022/04/06 12:16:49;;;;;;;4.50;1.53;;;16.10;99.90;;;;;;5074752;28;20220;-76
2022/04/06 12:19:18;;;;;;;4.70;1.40;;;16.00;99.90;;;;;;5095438;28;20189;-73
2022/04/06 12:21:46;;;;;;;5.47;1.50;;;15.90;99.90;;;;;;5094410;28;20202;-75
2022/04/06 12:24:15;;;;;;;3.43;1.50;;;16.00;99.90;;;;;;5093379;28;20196;-74
2022/04/06 12:26:51;;;;;;;2.97;1.20;;;16.20;99.90;;;;;;5094765;28;20261;-73
2022/04/06 12:29:18;;;;;;;2.23;1.40;;;16.50;99.90;;;;;;5092559;28;20671;-73
2022/04/06 12:31:45;;;;;;;2.17;1.20;;;15.60;99.90;;;;;;5094697;28;20208;-72
2022/04/06 12:34:27;;;;;;;3.47;1.43;;;15.60;99.90;;;;;;5089615;28;20268;-73
2022/04/06 12:36:54;;;;;;;2.23;1.27;;;15.90;99.90;;;;;;5092554;28;20220;-73
2022/04/06 12:39:21;;;;;;;3.17;1.20;;;16.00;99.90;;;;;;5097016;28;20577;-76
2022/04/06 12:41:56;;;;;;;3.10;1.20;;;16.10;99.90;;;;;;5095456;28;20228;-74
2022/04/06 12:44:23;;;;;;;2.13;1.33;;;16.30;99.90;;;;;;5096921;28;20197;-74
2022/04/06 12:46:51;;;;;;;3.57;1.30;;;16.10;99.90;;;;;;5093231;28;20499;-73
2022/04/06 12:49:29;;;;;;;4.30;1.73;;;16.40;99.90;;;;;;5071654;28;20206;-73
2022/04/06 12:52:08;;;;;;;4.03;1.40;;;16.70;99.90;;;;;;5077085;28;20252;-73
2022/04/06 12:54:36;;;;;;;3.07;1.20;;;16.80;99.90;;;;;;5090604;28;20208;-72
2022/04/06 12:57:26;;;;;;;2.83;1.10;;;16.80;99.90;;;;;;5075984;28;20226;-71
2022/04/06 12:59:57;;;;;;;2.27;1.20;;;17.10;99.90;;;;;;5092853;28;20205;-73
2022/04/06 13:02:25;;;;;;;3.33;1.30;;;16.50;99.90;;;;;;5071179;28;20198;-75